createdAt,value
2023-04-16T00:01:12.315Z,79.28
2023-04-16T00:03:39.265Z,80.23
2023-04-16T00:06:06.190Z,80.11
2023-04-16T00:08:32.723Z,81.26
2023-04-16T00:10:59.310Z,79.94
2023-04-16T00:13:25.911Z,80.01
2023-04-16T00:15:52.637Z,80.03
2023-04-16T00:18:19.269Z,80.39
2023-04-16T00:20:46.075Z,79.35
2023-04-16T00:23:12.768Z,79.55
2023-04-16T00:25:39.312Z,79.69
2023-04-16T00:28:05.863Z,80.09
2023-04-16T00:30:32.535Z,80.46
2023-04-16T00:32:59.152Z,79.93
2023-04-16T00:35:25.743Z,80.73
2023-04-16T00:37:52.353Z,80.53
2023-04-16T00:40:18.859Z,79.23
2023-04-16T00:42:45.753Z,79.59
2023-04-16T00:45:12.296Z,79.30
2023-04-16T00:47:39.199Z,78.66
2023-04-16T00:50:06.304Z,79.76
2023-04-16T00:52:32.941Z,79.24
2023-04-16T00:54:59.672Z,80.03
2023-04-16T00:57:26.281Z,80.14
2023-04-16T00:59:54.151Z,80.05
2023-04-16T01:02:20.972Z,79.27
2023-04-16T01:04:47.856Z,80.46
2023-04-16T01:07:14.590Z,79.29
2023-04-16T01:09:41.146Z,79.24
2023-04-16T01:12:07.750Z,80.48
2023-04-16T01:14:34.504Z,79.46
2023-04-16T01:17:01.118Z,79.04
2023-04-16T01:19:27.607Z,79.46
2023-04-16T01:21:54.112Z,80.20
2023-04-16T01:24:20.734Z,80.12
2023-04-16T01:26:47.278Z,80.44
2023-04-16T01:29:13.804Z,80.38
2023-04-16T01:31:40.537Z,80.32
2023-04-16T01:34:07.067Z,79.04
2023-04-16T01:36:33.772Z,79.79
2023-04-16T01:39:00.354Z,79.88
2023-04-16T01:41:26.891Z,79.42
2023-04-16T01:43:53.544Z,79.36
2023-04-16T01:46:27.300Z,80.31
2023-04-16T01:48:54.722Z,80.33
2023-04-16T01:51:22.138Z,79.64
2023-04-16T01:53:49.591Z,80.71
2023-04-16T01:56:16.364Z,79.58
2023-04-16T01:58:43.009Z,79.19
2023-04-16T02:01:09.882Z,80.26
2023-04-16T02:03:36.760Z,80.00
2023-04-16T02:06:03.591Z,79.90
2023-04-16T02:08:30.209Z,80.19
2023-04-16T02:10:57.629Z,80.63
2023-04-16T02:13:24.195Z,81.17
2023-04-16T02:15:51.169Z,80.66
2023-04-16T02:18:18.255Z,80.76
2023-04-16T02:20:46.270Z,81.85
2023-04-16T02:23:13.880Z,80.44
2023-04-16T02:25:45.538Z,80.98
2023-04-16T02:28:14.400Z,80.28
2023-04-16T02:30:41.586Z,80.56
2023-04-16T02:33:10.222Z,80.99
2023-04-16T02:35:38.507Z,81.66
2023-04-16T02:38:05.899Z,80.97
2023-04-16T02:40:32.581Z,81.71
2023-04-16T02:42:59.892Z,81.81
2023-04-16T02:45:26.460Z,82.11
2023-04-16T02:47:53.043Z,81.30
2023-04-16T02:50:19.735Z,80.74
2023-04-16T02:52:46.271Z,81.93
2023-04-16T02:55:12.903Z,80.92
2023-04-16T02:57:39.474Z,82.24
2023-04-16T03:00:06.649Z,82.03
2023-04-16T03:02:33.217Z,80.94
2023-04-16T03:04:59.911Z,81.66
2023-04-16T03:07:26.462Z,81.91
2023-04-16T03:09:52.950Z,82.05
2023-04-16T03:12:19.523Z,81.40
2023-04-16T03:14:46.146Z,80.98
2023-04-16T03:17:12.935Z,81.57
2023-04-16T03:19:39.492Z,81.26
2023-04-16T03:22:06.075Z,81.73
2023-04-16T03:24:32.604Z,81.49
2023-04-16T03:26:59.123Z,82.18
2023-04-16T03:29:25.829Z,81.17
2023-04-16T03:31:52.334Z,81.71
2023-04-16T03:34:18.914Z,81.26
2023-04-16T03:36:45.446Z,81.55
2023-04-16T03:39:12.029Z,82.56
2023-04-16T03:41:38.726Z,82.08
2023-04-16T03:44:05.310Z,82.68
2023-04-16T03:46:31.916Z,81.57
2023-04-16T03:48:58.602Z,81.50
2023-04-16T03:51:25.257Z,81.93
2023-04-16T03:53:51.788Z,82.22
2023-04-16T03:56:18.476Z,82.55
2023-04-16T03:58:44.978Z,82.77
2023-04-16T04:01:11.569Z,83.08
2023-04-16T04:03:38.334Z,83.12
2023-04-16T04:06:08.804Z,83.38
2023-04-16T04:08:35.459Z,82.66
2023-04-16T04:11:02.006Z,82.53
2023-04-16T04:13:28.588Z,82.44
2023-04-16T04:15:55.189Z,82.80
2023-04-16T04:18:21.991Z,81.59
2023-04-16T04:20:48.622Z,81.75
2023-04-16T04:23:15.344Z,81.42
2023-04-16T04:25:41.903Z,81.24
2023-04-16T04:28:08.447Z,80.59
2023-04-16T04:30:35.000Z,79.40
2023-04-16T04:33:01.636Z,80.67
2023-04-16T04:35:28.308Z,78.77
2023-04-16T04:37:54.849Z,80.08
2023-04-16T04:40:21.436Z,78.19
2023-04-16T04:42:47.978Z,79.24
2023-04-16T04:45:14.552Z,78.25
2023-04-16T04:47:41.153Z,78.44
2023-04-16T04:50:08.216Z,77.77
2023-04-16T04:52:34.786Z,75.75
2023-04-16T04:55:01.500Z,75.06
2023-04-16T04:57:27.999Z,74.60
2023-04-16T04:59:54.659Z,74.75
2023-04-16T05:02:21.303Z,73.38
2023-04-16T05:04:47.928Z,73.68
2023-04-16T05:07:14.532Z,74.41
2023-04-16T05:09:41.104Z,73.60
2023-04-16T05:12:07.618Z,73.24
2023-04-16T05:14:34.174Z,72.53
2023-04-16T05:17:00.938Z,72.82
2023-04-16T05:19:27.630Z,71.80
2023-04-16T05:21:54.486Z,71.37
2023-04-16T05:24:21.050Z,70.13
2023-04-16T05:26:47.644Z,70.05
2023-04-16T05:29:14.220Z,70.50
2023-04-16T05:31:41.036Z,69.79
2023-04-16T05:34:07.642Z,69.58
2023-04-16T05:36:34.141Z,68.87
2023-04-16T05:39:00.665Z,66.64
2023-04-16T05:41:27.783Z,65.20
2023-04-16T05:43:54.324Z,64.52
2023-04-16T05:46:21.056Z,66.48
2023-04-16T05:48:47.680Z,64.50
2023-04-16T05:51:14.260Z,64.00
2023-04-16T05:53:40.961Z,64.77
2023-04-16T05:56:08.058Z,65.17
2023-04-16T05:58:34.921Z,64.28
2023-04-16T06:01:01.600Z,64.36
2023-04-16T06:03:28.293Z,63.62
2023-04-16T06:05:55.111Z,64.47
2023-04-16T06:08:21.790Z,63.89
2023-04-16T06:10:49.012Z,63.78
2023-04-16T06:13:15.794Z,63.12
2023-04-16T06:15:42.444Z,62.38
2023-04-16T06:18:09.081Z,61.45
2023-04-16T06:20:35.913Z,62.44
2023-04-16T06:23:02.430Z,62.93
2023-04-16T06:25:29.077Z,61.60
2023-04-16T06:27:55.779Z,61.07
2023-04-16T06:30:22.560Z,59.06
2023-04-16T06:32:49.655Z,61.20
2023-04-16T06:35:16.366Z,59.81
2023-04-16T06:37:42.960Z,59.43
2023-04-16T06:40:10.040Z,59.45
2023-04-16T06:42:36.582Z,58.42
2023-04-16T06:45:03.235Z,58.52
2023-04-16T06:47:29.851Z,57.00
2023-04-16T06:49:56.531Z,57.42
2023-04-16T06:52:23.185Z,57.43
2023-04-16T06:54:49.866Z,57.37
2023-04-16T06:57:16.542Z,55.74
2023-04-16T06:59:43.149Z,54.73
2023-04-16T07:02:10.981Z,54.86
2023-04-16T07:04:37.604Z,55.05
2023-04-16T07:07:04.300Z,55.73
2023-04-16T07:09:30.869Z,55.03
2023-04-16T07:11:57.553Z,56.60
2023-04-16T07:14:24.272Z,55.32
2023-04-16T07:16:50.904Z,56.53
2023-04-16T07:19:17.487Z,57.03
2023-04-16T07:21:44.287Z,55.50
2023-04-16T07:24:11.235Z,55.50
2023-04-16T07:26:37.943Z,52.77
2023-04-16T07:29:04.442Z,51.84
2023-04-16T07:31:31.071Z,50.26
2023-04-16T07:33:58.549Z,50.55
2023-04-16T07:36:25.297Z,49.85
2023-04-16T07:38:53.093Z,48.63
2023-04-16T07:41:19.742Z,47.70
2023-04-16T07:43:46.286Z,48.14
2023-04-16T07:46:15.937Z,49.25
2023-04-16T07:48:43.023Z,50.36
2023-04-16T07:51:09.598Z,49.11
2023-04-16T07:53:36.185Z,48.96
2023-04-16T07:56:02.854Z,50.89
2023-04-16T07:58:29.385Z,49.04
2023-04-16T08:00:56.244Z,48.79
2023-04-16T08:03:23.159Z,48.36
2023-04-16T08:05:50.027Z,49.74
2023-04-16T08:08:16.843Z,50.71
2023-04-16T08:10:43.454Z,50.51
2023-04-16T08:13:09.994Z,49.76
2023-04-16T08:15:36.540Z,48.61
2023-04-16T08:18:03.152Z,49.18
2023-04-16T08:20:29.758Z,48.48
2023-04-16T08:22:56.315Z,45.72
2023-04-16T08:25:22.831Z,47.07
2023-04-16T08:27:49.369Z,46.24
2023-04-16T08:30:16.066Z,45.65
2023-04-16T08:32:43.441Z,43.54
2023-04-16T08:35:10.315Z,44.80
2023-04-16T08:37:36.972Z,43.71
2023-04-16T08:40:03.696Z,45.96
2023-04-16T08:42:37.560Z,44.80
2023-04-16T08:45:08.692Z,45.92
2023-04-16T08:47:36.437Z,44.11
2023-04-16T08:50:06.691Z,44.93
2023-04-16T08:52:39.954Z,42.05
2023-04-16T08:55:16.571Z,42.68
2023-04-16T08:57:57.765Z,41.61
2023-04-16T09:00:24.694Z,42.23
2023-04-16T09:02:51.561Z,42.86
2023-04-16T09:05:18.602Z,41.08
2023-04-16T09:07:46.753Z,42.08
2023-04-16T09:10:15.167Z,42.95
2023-04-16T09:12:42.408Z,42.19
2023-04-16T09:15:13.754Z,41.73
2023-04-16T09:17:40.486Z,38.74
2023-04-16T09:20:08.934Z,37.87
2023-04-16T09:22:36.287Z,37.77
2023-04-16T09:25:02.963Z,37.74
2023-04-16T09:27:30.548Z,37.87
2023-04-16T09:29:57.236Z,34.53
2023-04-16T09:32:28.957Z,34.38
2023-04-16T09:35:00.433Z,34.05
2023-04-16T09:37:31.069Z,34.59
2023-04-16T09:39:59.707Z,35.25
2023-04-16T09:42:31.780Z,33.04
2023-04-16T09:45:01.381Z,32.48
2023-04-16T09:47:45.894Z,30.83
2023-04-16T09:50:18.618Z,31.28
2023-04-16T09:52:48.831Z,30.07
2023-04-16T09:55:15.368Z,30.06
2023-04-16T09:57:41.970Z,28.85
2023-04-16T10:00:10.522Z,28.60
2023-04-16T10:02:40.775Z,28.34
2023-04-16T10:05:07.912Z,28.34
2023-04-16T10:07:36.362Z,27.12
2023-04-16T10:10:04.015Z,28.25
2023-04-16T10:12:31.128Z,27.96
2023-04-16T10:14:57.723Z,27.15
2023-04-16T10:17:25.277Z,26.19
2023-04-16T10:19:53.845Z,26.28
2023-04-16T10:22:20.497Z,25.27
2023-04-16T10:24:47.735Z,24.71
2023-04-16T10:27:14.353Z,23.58
2023-04-16T10:29:41.348Z,24.49
2023-04-16T10:32:08.212Z,24.43
2023-04-16T10:34:35.304Z,23.53
2023-04-16T10:37:01.997Z,24.00
2023-04-16T10:39:28.937Z,23.54
2023-04-16T10:42:15.756Z,21.21
2023-04-16T10:44:45.302Z,22.10
2023-04-16T10:47:13.328Z,21.94
2023-04-16T10:49:41.216Z,20.96
2023-04-16T10:52:12.869Z,23.15
2023-04-16T10:54:40.109Z,23.12
2023-04-16T10:57:17.165Z,23.06
2023-04-16T10:59:44.621Z,23.04
2023-04-16T11:02:17.175Z,22.42
2023-04-16T11:04:46.052Z,22.82
2023-04-16T11:07:12.656Z,22.21
2023-04-16T11:09:56.365Z,21.27
2023-04-16T11:12:24.549Z,21.55
2023-04-16T11:15:02.885Z,20.12
2023-04-16T11:17:33.451Z,21.44
2023-04-16T11:20:00.099Z,23.06
2023-04-16T11:22:27.191Z,23.68
2023-04-16T11:24:55.761Z,25.01
2023-04-16T11:27:23.547Z,24.51
2023-04-16T11:30:07.209Z,24.65
2023-04-16T11:32:35.064Z,25.17
2023-04-16T11:35:02.929Z,25.23
2023-04-16T11:37:36.557Z,24.78
2023-04-16T11:40:05.041Z,26.18
2023-04-16T11:42:31.660Z,25.89
2023-04-16T11:44:59.927Z,25.65
2023-04-16T11:47:27.540Z,25.80
2023-04-16T11:49:54.181Z,25.22
2023-04-16T11:52:32.215Z,26.67
2023-04-16T11:54:59.559Z,26.69
2023-04-16T11:57:30.708Z,26.17
2023-04-16T12:00:02.186Z,27.37
2023-04-16T12:02:44.707Z,25.98
2023-04-16T12:05:33.807Z,26.74
2023-04-16T12:08:09.363Z,27.17
2023-04-16T12:10:38.147Z,26.65
2023-04-16T12:13:12.255Z,26.07
2023-04-16T12:15:52.735Z,26.04
2023-04-16T12:18:21.674Z,28.90
2023-04-16T12:20:48.847Z,26.81
2023-04-16T12:23:30.153Z,26.16
2023-04-16T12:25:57.374Z,29.24
2023-04-16T12:28:34.144Z,27.25
2023-04-16T12:31:02.120Z,26.64
2023-04-16T12:33:29.110Z,27.21
2023-04-16T12:35:55.799Z,26.14
2023-04-16T12:38:24.444Z,27.40
2023-04-16T12:40:51.900Z,25.60
2023-04-16T12:43:18.632Z,26.00
2023-04-16T12:45:45.181Z,26.16
2023-04-16T12:48:11.761Z,27.01
2023-04-16T12:50:38.371Z,27.69
2023-04-16T12:53:05.058Z,28.92
2023-04-16T12:55:31.631Z,27.95
2023-04-16T12:57:58.187Z,28.51
2023-04-16T13:00:24.884Z,28.76
2023-04-16T13:02:51.574Z,28.63
2023-04-16T13:05:18.317Z,26.03
2023-04-16T13:07:45.228Z,27.47
2023-04-16T13:10:12.196Z,27.43
2023-04-16T13:12:38.795Z,26.93
2023-04-16T13:15:05.638Z,28.21
2023-04-16T13:17:32.406Z,27.18
2023-04-16T13:19:59.040Z,28.40
2023-04-16T13:22:25.617Z,27.72
2023-04-16T13:24:52.154Z,28.78
2023-04-16T13:27:18.688Z,28.82
2023-04-16T13:29:46.142Z,27.98
2023-04-16T13:32:12.786Z,30.85
2023-04-16T13:34:39.678Z,31.88
2023-04-16T13:37:06.347Z,32.39
2023-04-16T13:39:33.711Z,32.07
2023-04-16T13:42:00.495Z,32.16
2023-04-16T13:44:27.234Z,32.54
2023-04-16T13:46:53.905Z,31.48
2023-04-16T13:49:20.474Z,32.78
2023-04-16T13:51:47.103Z,31.61
2023-04-16T13:54:13.775Z,31.77
2023-04-16T13:56:40.482Z,31.19
2023-04-16T13:59:07.704Z,32.30
2023-04-16T14:01:34.644Z,32.58
2023-04-16T14:04:01.985Z,33.17
2023-04-16T14:06:28.582Z,33.55
2023-04-16T14:08:55.130Z,31.56
2023-04-16T14:11:21.868Z,32.61
2023-04-16T14:13:48.483Z,32.75
2023-04-16T14:16:15.252Z,32.71
2023-04-16T14:18:41.797Z,33.07
2023-04-16T14:21:08.863Z,33.71
2023-04-16T14:23:35.533Z,32.70
2023-04-16T14:26:02.081Z,33.84
2023-04-16T14:28:28.675Z,35.40
2023-04-16T14:30:55.211Z,34.19
2023-04-16T14:33:21.745Z,34.28
2023-04-16T14:35:48.288Z,35.53
2023-04-16T14:38:14.893Z,35.67
2023-04-16T14:40:41.405Z,36.32
2023-04-16T14:43:07.917Z,37.99
2023-04-16T14:45:34.510Z,37.97
2023-04-16T14:48:01.081Z,39.39
2023-04-16T14:50:27.816Z,38.95
2023-04-16T14:52:54.459Z,39.75
2023-04-16T14:55:21.182Z,40.35
2023-04-16T14:57:47.793Z,39.41
2023-04-16T15:00:14.750Z,40.13
2023-04-16T15:02:41.559Z,40.03
2023-04-16T15:05:08.792Z,39.72
2023-04-16T15:07:35.372Z,41.01
2023-04-16T15:10:02.309Z,41.27
2023-04-16T15:12:28.969Z,41.53
2023-04-16T15:14:55.626Z,42.39
2023-04-16T15:17:22.559Z,42.11
2023-04-16T15:19:49.252Z,42.59
2023-04-16T15:22:15.864Z,41.45
2023-04-16T15:24:42.470Z,41.92
2023-04-16T15:27:11.628Z,42.40
2023-04-16T15:29:38.649Z,42.95
2023-04-16T15:32:05.367Z,43.04
2023-04-16T15:34:31.926Z,42.73
2023-04-16T15:36:58.562Z,43.10
2023-04-16T15:39:25.169Z,42.96
2023-04-16T15:44:21.358Z,41.52
2023-04-16T15:46:47.931Z,41.75
2023-04-16T15:49:14.788Z,42.06
2023-04-16T15:51:41.368Z,42.49
2023-04-16T15:54:07.968Z,42.28
2023-04-16T15:56:34.671Z,42.08
2023-04-16T15:59:01.297Z,42.57
2023-04-16T16:01:27.892Z,42.33
2023-04-16T16:03:54.680Z,42.79
2023-04-16T16:06:21.432Z,42.30
2023-04-16T16:08:48.131Z,42.21
2023-04-16T16:11:14.859Z,42.50
2023-04-16T16:13:41.532Z,42.83
2023-04-16T16:16:08.191Z,42.71
2023-04-16T16:18:34.822Z,42.63
2023-04-16T16:21:01.496Z,42.63
2023-04-16T16:23:28.109Z,42.33
2023-04-16T16:25:54.684Z,42.21
2023-04-16T16:28:21.307Z,42.44
2023-04-16T16:30:47.817Z,42.39
2023-04-16T16:33:15.294Z,42.50
2023-04-16T16:35:42.162Z,42.44
2023-04-16T16:38:08.870Z,42.13
2023-04-16T16:40:35.439Z,42.38
2023-04-16T16:43:02.063Z,42.83
2023-04-16T16:45:28.661Z,42.51
2023-04-16T16:47:55.279Z,42.10
2023-04-16T16:50:22.018Z,42.04
2023-04-16T16:52:48.669Z,42.03
2023-04-16T16:55:15.426Z,42.18
2023-04-16T16:57:42.983Z,42.26
2023-04-16T17:00:10.448Z,42.20
2023-04-16T17:02:37.818Z,42.13
2023-04-16T17:05:05.514Z,41.87
2023-04-16T17:07:32.163Z,42.46
2023-04-16T17:10:01.614Z,42.72
2023-04-16T17:12:29.622Z,42.64
2023-04-16T17:14:56.260Z,42.44
2023-04-16T17:17:22.898Z,43.31
2023-04-16T17:19:49.582Z,43.01
2023-04-16T17:22:16.205Z,43.43
2023-04-16T17:24:42.854Z,43.48
2023-04-16T17:27:09.399Z,44.19
2023-04-16T17:29:35.972Z,43.75
2023-04-16T17:32:02.667Z,44.94
2023-04-16T17:34:29.369Z,45.18
2023-04-16T17:36:55.866Z,45.95
2023-04-16T17:39:22.420Z,45.63
2023-04-16T17:41:49.017Z,45.05
2023-04-16T17:44:15.966Z,45.67
2023-04-16T17:46:42.912Z,46.27
2023-04-16T17:49:09.504Z,46.78
2023-04-16T17:51:36.122Z,45.81
2023-04-16T17:54:02.641Z,46.19
2023-04-16T17:56:29.233Z,45.89
2023-04-16T17:58:55.866Z,46.22
2023-04-16T18:01:22.420Z,45.60
2023-04-16T18:03:49.139Z,44.92
2023-04-16T18:06:15.870Z,45.47
2023-04-16T18:08:42.473Z,45.69
2023-04-16T18:11:09.235Z,45.70
2023-04-16T18:13:35.841Z,45.47
2023-04-16T18:16:02.811Z,45.31
2023-04-16T18:18:29.528Z,45.49
2023-04-16T18:20:56.109Z,45.17
2023-04-16T18:23:22.618Z,46.35
2023-04-16T18:25:49.238Z,46.10
2023-04-16T18:28:15.797Z,45.50
2023-04-16T18:30:42.824Z,45.98
2023-04-16T18:33:26.369Z,46.08
2023-04-16T18:35:56.110Z,46.51
2023-04-16T18:38:22.720Z,46.12
2023-04-16T18:40:49.309Z,47.15
2023-04-16T18:43:19.021Z,46.35
2023-04-16T18:45:45.690Z,46.83
2023-04-16T18:48:12.228Z,46.04
2023-04-16T18:50:38.809Z,47.15
2023-04-16T18:53:05.404Z,47.34
2023-04-16T18:55:32.048Z,46.77
2023-04-16T18:57:58.584Z,47.36
2023-04-16T19:00:25.134Z,48.23
2023-04-16T19:02:51.758Z,48.71
2023-04-16T19:05:18.508Z,47.58
2023-04-16T19:07:45.176Z,48.38
2023-04-16T19:10:11.773Z,48.41
2023-04-16T19:12:38.314Z,48.44
2023-04-16T19:15:07.552Z,47.54
2023-04-16T19:17:34.146Z,48.39
2023-04-16T19:20:00.723Z,48.51
2023-04-16T19:22:27.376Z,48.87
2023-04-16T19:24:53.984Z,49.17
2023-04-16T19:27:20.654Z,48.47
2023-04-16T19:29:47.182Z,49.15
2023-04-16T19:32:14.279Z,49.94
2023-04-16T19:34:41.165Z,50.01
2023-04-16T19:37:07.717Z,50.81
2023-04-16T19:39:34.243Z,51.21
2023-04-16T19:42:00.742Z,52.77
2023-04-16T19:44:27.344Z,54.18
2023-04-16T19:46:53.924Z,52.54
2023-04-16T19:49:20.421Z,50.84
2023-04-16T19:51:46.996Z,51.97
2023-04-16T19:54:15.852Z,51.48
2023-04-16T19:56:42.553Z,49.92
2023-04-16T19:59:09.594Z,50.94
2023-04-16T20:01:36.404Z,49.20
2023-04-16T20:04:03.072Z,49.51
2023-04-16T20:06:29.766Z,51.68
2023-04-16T20:08:56.591Z,51.40
2023-04-16T20:11:23.116Z,50.77
2023-04-16T20:13:49.685Z,51.30
2023-04-16T20:16:16.265Z,51.45
2023-04-16T20:18:42.948Z,50.37
2023-04-16T20:21:09.997Z,51.49
2023-04-16T20:23:36.601Z,51.66
2023-04-16T20:26:03.174Z,50.71
2023-04-16T20:28:29.824Z,50.77
2023-04-16T20:30:56.378Z,49.20
2023-04-16T20:33:22.924Z,49.29
2023-04-16T20:35:49.461Z,49.92
2023-04-16T20:38:16.140Z,49.01
2023-04-16T20:40:42.672Z,48.78
2023-04-16T20:43:09.185Z,50.52
2023-04-16T20:45:35.898Z,50.34
2023-04-16T20:48:02.523Z,49.97
2023-04-16T20:50:29.042Z,49.95
2023-04-16T20:52:55.974Z,49.67
2023-04-16T20:55:22.544Z,49.14
2023-04-16T20:57:49.173Z,49.39
2023-04-16T21:00:16.058Z,50.22
2023-04-16T21:02:43.538Z,49.18
2023-04-16T21:05:10.807Z,50.34
2023-04-16T21:07:37.399Z,50.86
2023-04-16T21:10:04.171Z,49.55
2023-04-16T21:12:30.845Z,50.01
2023-04-16T21:14:57.436Z,50.81
2023-04-16T21:17:24.011Z,50.05
2023-04-16T21:19:50.642Z,50.53
2023-04-16T21:22:17.285Z,50.45
2023-04-16T21:24:43.824Z,52.29
2023-04-16T21:27:10.383Z,51.65
2023-04-16T21:29:36.982Z,51.55
2023-04-16T21:32:03.578Z,52.86
2023-04-16T21:34:30.171Z,52.50
2023-04-16T21:36:56.668Z,53.81
2023-04-16T21:39:23.216Z,52.13
2023-04-16T21:41:49.856Z,53.34
2023-04-16T21:44:16.432Z,53.49
2023-04-16T21:46:43.000Z,53.57
2023-04-16T21:49:10.020Z,53.70
2023-04-16T21:51:38.207Z,54.68
2023-04-16T21:54:05.884Z,55.05
2023-04-16T21:56:32.571Z,53.74
2023-04-16T21:58:59.171Z,54.12
2023-04-16T22:01:25.821Z,55.34
2023-04-16T22:03:52.710Z,55.81
2023-04-16T22:06:19.443Z,56.43
2023-04-16T22:08:46.284Z,56.08
2023-04-16T22:11:12.843Z,56.77
2023-04-16T22:13:39.500Z,55.44
2023-04-16T22:16:07.495Z,55.82
2023-04-16T22:18:34.876Z,56.71
2023-04-16T22:21:01.418Z,57.02
2023-04-16T22:23:28.083Z,57.51
2023-04-16T22:25:55.641Z,57.89
2023-04-16T22:28:22.702Z,57.10
2023-04-16T22:30:49.450Z,57.74
2023-04-16T22:33:16.002Z,58.62
2023-04-16T22:35:42.537Z,58.50
2023-04-16T22:38:09.182Z,58.54
2023-04-16T22:40:35.850Z,58.75
2023-04-16T22:43:02.455Z,58.50
2023-04-16T22:45:29.076Z,59.21
2023-04-16T22:47:55.786Z,59.61
2023-04-16T22:50:22.387Z,59.89
2023-04-16T22:52:48.885Z,60.29
2023-04-16T22:55:15.441Z,60.17
2023-04-16T22:57:42.015Z,60.28
2023-04-16T23:00:09.015Z,60.05
2023-04-16T23:02:35.727Z,60.19
2023-04-16T23:05:02.305Z,60.90
2023-04-16T23:07:28.858Z,59.78
2023-04-16T23:09:55.504Z,60.61
2023-04-16T23:12:22.037Z,59.43
2023-04-16T23:14:48.603Z,60.36
2023-04-16T23:17:15.172Z,59.81
2023-04-16T23:19:41.739Z,60.54
2023-04-16T23:22:08.314Z,60.98
2023-04-16T23:24:34.883Z,61.30
2023-04-16T23:27:01.539Z,59.88
2023-04-16T23:29:28.137Z,60.87
2023-04-16T23:31:54.659Z,60.64
2023-04-16T23:34:21.279Z,60.26
2023-04-16T23:36:47.911Z,60.33
2023-04-16T23:39:14.499Z,61.29
2023-04-16T23:41:41.122Z,61.30
2023-04-16T23:44:07.763Z,61.62
2023-04-16T23:46:34.309Z,61.79
2023-04-16T23:49:00.955Z,61.36
2023-04-16T23:51:27.474Z,61.27
2023-04-16T23:53:54.093Z,60.85
2023-04-16T23:56:20.710Z,61.45
2023-04-16T23:58:47.295Z,61.21
